Latest Coastal Weather Observations for Geelong Racecourse

IDV60701

Issued at 1:12 am EST Thursday 3 September 2026 (issued every 10 minutes, with the page automatically refreshed every 10 minutes)

About coastal observations | Map of coastal stations | Coastal observations for VIC | Marine services | Other Formats
Station Details ID: 087184 Name: GEELONG RACECOURSE Lat: -38.17 Lon: 144.38 Height: 12.9 m
Data from the previous 72 hours. | See also: Recent months at Geelong Racecourse
Date/Time
EST
Wind Sea
Height
m
Swell Vis
km
Cloud Weather Temp
°C
Press
MSL
hPa
Rain since
9am
mm
Dir  Spd
kts
Gust
kts
Height
m
Period
s
Dir
03/01:00am SW 4 7 - - - - - - - 9.8 1009.7 0.0
03/12:30am SW 4 6 - - - - - - - 10.0 1009.9 0.0
03/12:00am SW 7 11 - - - - - - - 11.0 1010.2 0.0
 
Date/Time
EST
Wind Sea
Height
m
Swell Vis
km
Cloud Weather Temp
°C
Press
MSL
hPa
Rain since
9am
mm
Dir  Spd
kts
Gust
kts
Height
m
Period
s
Dir
02/11:30pm SW 5 8 - - - - - - - 11.2 1010.4 0.0
02/11:00pm SW 4 6 - - - - - - - 11.4 1010.7 0.0
02/10:30pm SSW 5 6 - - - - - - - 12.0 1011.1 0.0
02/10:00pm SSW 5 7 - - - - - - - 12.2 1011.5 0.0
02/09:30pm SSW 4 7 - - - - - - - 12.1 1011.9 0.0
02/09:00pm SW 5 8 - - - - - - - 12.4 1011.8 0.0
02/08:30pm SSW 4 5 - - - - - - - 11.7 1011.8 0.0
02/08:00pm SSW 6 9 - - - - - - - 11.4 1011.8 0.0
02/07:30pm SSW 5 6 - - - - - - - 12.0 1011.4 0.0
02/07:00pm S 6 9 - - - - - - - 12.2 1011.2 0.0
02/06:30pm SSW 6 9 - - - - - - - 12.1 1011.1 0.0
02/06:00pm S 6 9 - - - - - - - 12.8 1011.2 0.0
02/05:30pm SSW 6 9 - - - - - - - 13.8 1011.0 0.0
02/05:00pm S 7 9 - - - - - - - 14.4 1011.0 0.0
02/04:30pm S 9 14 - - - - - - - 14.7 1011.3 0.0
02/04:00pm S 8 13 - - - - - - - 15.4 1011.7 0.0
02/03:30pm S 11 16 - - - - - - - 15.0 1012.1 0.0
02/03:00pm SSW 12 17 - - - - - - - 15.2 1012.5 0.0
02/02:30pm S 10 17 - - - - - - - 15.1 1012.6 0.0
02/02:00pm S 10 14 - - - - - - - 14.4 1012.8 0.0
02/01:30pm S 8 14 - - - - - - - 14.1 1013.0 0.0
02/01:00pm S 10 17 - - - - - - - 14.4 1013.4 0.0
02/12:30pm SSW 10 15 - - - - - - - 13.8 1014.0 0.0
02/12:00pm SSW 10 16 - - - - - - - 13.7 1014.6 0.0
02/11:30am SSW 10 19 - - - - - - - 13.8 1014.7 0.0
02/11:00am SSW 10 16 - - - - - - - 13.7 1014.9 0.0
02/10:30am SSW 9 14 - - - - - - - 13.7 1015.0 0.0
02/10:00am SSW 6 11 - - - - - - - 13.1 1015.4 0.0
02/09:30am SSW 9 12 - - - - - - - 12.4 1015.5 0.0
02/09:00am SSW 6 9 - - - - - - - 11.6 1015.7 0.8
02/08:30am SSW 5 7 - - - - - - - 10.6 1015.6 0.8
02/08:00am SW 4 7 - - - - - - - 9.9 1015.3 0.8
02/07:30am SW 2 3 - - - - - - - 9.1 1015.0 0.8
02/07:00am SSW 3 5 - - - - - - - 9.0 1014.7 0.8
02/06:30am SSW 5 6 - - - - - - - 9.6 1014.3 0.8
02/06:00am SW 5 7 - - - - - - - 9.9 1013.9 0.8
02/05:30am SSW 4 6 - - - - - - - 10.4 1013.7 0.8
02/05:00am S 4 6 - - - - - - - 10.9 1013.6 0.8
02/04:30am S 5 7 - - - - - - - 11.6 1013.2 0.8
02/04:00am S 6 9 - - - - - - - 11.9 1012.8 0.8
02/03:30am SSE 7 10 - - - - - - - 12.3 1013.0 0.8
02/03:00am SSE 6 10 - - - - - - Recent precip. 12.5 1012.7 0.8
02/02:30am SSE 7 10 - - - - - - - 13.0 1012.7 0.6
02/02:00am SSE 9 13 - - - - - - - 14.1 1012.7 0.6
02/01:30am SSW 6 9 - - - - - - - 15.0 1012.1 0.6
02/01:00am SSW 7 13 - - - - - - - 15.4 1012.1 0.6
02/12:30am SSW 5 8 - - - - - - - 15.4 1012.1 0.6
02/12:00am SW 5 8 - - - - - - - 15.4 1012.2 0.6
 
Date/Time
EST
Wind Sea
Height
m
Swell Vis
km
Cloud Weather Temp
°C
Press
MSL
hPa
Rain since
9am
mm
Dir  Spd
kts
Gust
kts
Height
m
Period
s
Dir
01/11:30pm SW 6 11 - - - - - - - 15.2 1012.2 0.6
01/11:00pm SW 7 11 - - - - - - - 15.6 1012.5 0.6
01/10:30pm SSW 10 16 - - - - - - - 16.1 1012.4 0.6
01/10:00pm SW 6 10 - - - - - - - 16.0 1012.1 0.6
01/09:30pm SW 8 11 - - - - - - - 16.2 1011.8 0.6
01/09:00pm WSW 4 7 - - - - - - Recent precip. 15.3 1011.7 0.6
01/08:30pm SW 6 9 - - - - - - - 15.3 1011.7 0.6
01/08:00pm SW 8 13 - - - - - - - 16.2 1012.0 0.2
01/07:30pm WSW 10 14 - - - - - - - 16.4 1011.8 0.2
01/07:00pm SW 13 20 - - - - - - - 18.1 1011.6 0.2
01/06:30pm SW 10 15 - - - - - - - 18.8 1011.7 0.2
01/06:00pm WSW 9 14 - - - - - - - 18.9 1012.1 0.2
01/05:30pm WSW 8 13 - - - - - - - 19.4 1012.4 0.2
01/05:00pm WSW 9 14 - - - - - - - 19.7 1012.4 0.2
01/04:30pm SW 11 17 - - - - - - - 19.9 1012.4 0.2
01/04:00pm WSW 11 18 - - - - - - - 20.0 1012.5 0.2
01/03:30pm SW 13 22 - - - - - - - 20.5 1012.6 0.2
01/03:17pm SW 14 21 - - - - - - - 20.4 1012.7 0.0
01/03:00pm SW 16 25 - - - - - - - 20.6 1012.8 0.0
01/02:58pm SW 15 25 - - - - - - - 20.6 1012.7 0.0
01/02:30pm SW 14 23 - - - - - - - 20.7 1012.3 0.0
01/02:02pm SW 13 21 - - - - - - - 21.1 1012.6 0.0
01/02:00pm SW 12 21 - - - - - - - 21.2 1012.5 0.0
01/01:51pm SW 15 26 - - - - - - - 21.5 1012.8 0.0
01/01:44pm SW 17 25 - - - - - - - 21.2 1012.8 0.0
01/01:30pm SW 18 29 - - - - - - - 21.0 1013.1 0.0
01/01:16pm SW 17 31 - - - - - - - 21.0 1013.4 0.0
01/01:12pm SW 18 26 - - - - - - - 21.2 1013.6 0.0
01/01:00pm SW 19 30 - - - - - - - 20.9 1014.1 0.0
01/12:52pm SW 20 30 - - - - - - - 20.7 1014.1 0.0
01/12:30pm SW 19 28 - - - - - - - 20.6 1014.7 0.0
01/12:00pm SSW 18 27 - - - - - - - 20.7 1015.4 0.0
01/11:30am SW 14 20 - - - - - - - 20.2 1016.1 0.0
01/11:00am WSW 13 21 - - - - - - - 20.0 1016.7 0.0
01/10:30am NW 10 14 - - - - - - - 19.5 1016.9 0.0
01/10:00am NNW 8 10 - - - - - - - 17.4 1017.5 0.0
01/09:30am N 10 14 - - - - - - - 15.4 1017.8 0.0
01/09:00am N 8 12 - - - - - - - 14.4 1018.6 0.0
01/08:30am N 8 11 - - - - - - - 13.3 1019.0 0.0
01/08:00am N 7 9 - - - - - - - 12.9 1019.5 0.0
01/07:30am N 6 9 - - - - - - - 11.5 1019.8 0.0
01/07:00am N 6 7 - - - - - - - 11.0 1019.9 0.0
01/06:30am N 7 9 - - - - - - - 11.8 1019.8 0.0
01/06:00am NNE 4 7 - - - - - - - 9.4 1020.1 0.0
01/05:30am NNE 2 3 - - - - - - - 6.5 1020.5 0.0
01/05:00am NNE 2 3 - - - - - - - 7.0 1020.8 0.0
01/04:30am CALM 0 0 - - - - - - - 6.1 1020.8 0.0
01/04:00am NNE 1 2 - - - - - - - 6.2 1021.1 0.0
01/03:30am NNE 1 2 - - - - - - - 6.8 1021.5 0.0
01/03:00am NNE 2 3 - - - - - - - 7.2 1022.0 0.0
01/02:30am NNE 3 4 - - - - - - - 7.0 1022.5 0.0
01/02:00am NNE 3 3 - - - - - - - 7.7 1023.0 0.0
01/01:30am CALM 0 1 - - - - - - - 7.8 1023.4 0.0
01/01:00am NNE 2 3 - - - - - - - 8.3 1023.6 0.0
01/12:30am N 3 5 - - - - - - - 9.5 1023.9 0.0
01/12:00am N 3 3 - - - - - - - 8.6 1024.3 0.0
 
Date/Time
EST
Wind Sea
Height
m
Swell Vis
km
Cloud Weather Temp
°C
Press
MSL
hPa
Rain since
9am
mm
Dir  Spd
kts
Gust
kts
Height
m
Period
s
Dir
31/11:30pm NNE 2 3 - - - - - - - 7.5 1025.0 0.0
31/11:00pm N 2 2 - - - - - - - 8.9 1025.5 0.0
31/10:30pm NNE 2 2 - - - - - - - 10.0 1025.8 0.0
31/10:00pm NNE 3 4 - - - - - - - 9.7 1026.1 0.0
31/09:30pm NNE 1 2 - - - - - - - 9.6 1026.3 0.0
31/09:00pm N 2 3 - - - - - - - 10.2 1026.4 0.0
31/08:30pm CALM 0 0 - - - - - - - 10.2 1026.6 0.0
31/08:00pm CALM 0 0 - - - - - - - 10.5 1026.8 0.0
31/07:30pm N 2 2 - - - - - - - 11.4 1027.0 0.0
31/07:00pm N 2 4 - - - - - - - 11.8 1027.1 0.0
31/06:30pm N 3 4 - - - - - - - 12.3 1027.1 0.0
31/06:00pm N 3 5 - - - - - - - 12.8 1027.2 0.0
31/05:30pm NNE 5 7 - - - - - - - 13.2 1027.2 0.0
31/05:00pm NNE 4 6 - - - - - - - 14.7 1027.3 0.0
31/04:30pm NNE 4 5 - - - - - - - 15.2 1027.5 0.0
31/04:00pm NNE 3 5 - - - - - - - 15.7 1027.8 0.0
31/03:30pm N 3 5 - - - - - - - 15.9 1028.2 0.0
31/03:00pm N 5 8 - - - - - - - 15.6 1028.5 0.0
31/02:30pm S 3 6 - - - - - - - 17.1 1028.8 0.0
31/02:00pm NW 2 4 - - - - - - - 16.6 1029.4 0.0
31/01:30pm NW 2 5 - - - - - - - 16.1 1030.0 0.0
31/01:00pm NW 2 5 - - - - - - - 15.0 1030.4 0.0
31/12:30pm NW 2 4 - - - - - - - 14.6 1030.9 0.0
31/12:00pm W 2 5 - - - - - - - 13.6 1031.6 0.0
31/11:30am W 3 6 - - - - - - - 12.4 1032.1 0.0
31/11:00am W 4 7 - - - - - - - 11.3 1032.5 0.0
31/10:30am WSW 5 8 - - - - - - - 10.2 1032.7 0.0
31/10:00am WSW 5 7 - - - - - - - 10.0 1032.9 0.0
31/09:30am WSW 3 6 - - - - - - - 9.8 1032.8 0.0
31/09:00am W 4 6 - - - - - - - 9.3 1033.0 -
31/08:30am W 4 6 - - - - - - - 9.1 1032.8 -
31/08:00am W 5 6 - - - - - - - 9.0 1032.9 -
31/07:30am W 5 7 - - - - - - - 8.9 1032.7 -
31/07:00am W 4 6 - - - - - - - 9.1 1032.6 -
31/06:30am W 4 7 - - - - - - - 9.2 1032.5 -
31/06:00am WSW 4 6 - - - - - - - 9.3 1032.4 -
31/05:30am W 3 5 - - - - - - - 9.3 1032.3 -
31/05:00am W 4 7 - - - - - - - 8.8 1032.0 -
31/04:30am WSW 5 7 - - - - - - - 9.1 1032.2 -
31/04:00am W 5 7 - - - - - - - 9.1 1032.3 -
31/03:30am WSW 4 7 - - - - - - - 9.1 1032.5 -
31/03:00am WSW 4 7 - - - - - - - 9.1 1032.8 0.0
31/02:30am S 4 7 - - - - - - - 9.2 1032.9 -
31/02:00am ESE 4 8 - - - - - - - 9.1 1033.0 -
31/01:30am ESE 3 5 - - - - - - - 9.3 1033.0 -

Other formats

Comma delimited format used in spreadsheet applications
http://www.bom.gov.au/fwo/IDV60701/IDV60701.94857.axf

JavaScript Object Notation format (JSON) in row-major order
http://www.bom.gov.au/fwo/IDV60701/IDV60701.94857.json

Data quality

Most of these data are generated automatically and are frequently updated. Quality checks on data are not normally performed. It is possible for incorrect values to appear. Refer to information at About Latest Weather Observations and please check the disclaimer before using these data.